createdAt,value
2019-02-08T00:03:20.977Z,203.30
2019-02-08T00:08:26.776Z,197.93
2019-02-08T00:13:32.404Z,212.03
2019-02-08T00:18:36.687Z,191.80
2019-02-08T00:23:41.251Z,191.33
2019-02-08T00:28:45.564Z,197.47
2019-02-08T00:33:49.842Z,200.30
2019-02-08T00:38:54.326Z,182.27
2019-02-08T00:43:58.808Z,192.30
2019-02-08T00:49:03.725Z,174.53
2019-02-08T00:54:08.158Z,179.23
2019-02-08T00:59:12.541Z,182.30
2019-02-08T01:04:16.739Z,189.57
2019-02-08T01:09:20.945Z,193.63
2019-02-08T01:14:25.524Z,176.90
2019-02-08T01:19:29.697Z,173.87
2019-02-08T01:24:33.881Z,168.87
2019-02-08T01:29:38.484Z,183.47
2019-02-08T01:34:42.834Z,176.87
2019-02-08T01:39:47.014Z,170.77
2019-02-08T01:44:51.289Z,174.20
2019-02-08T01:49:55.466Z,172.43
2019-02-08T01:54:59.641Z,171.00
2019-02-08T02:00:07.616Z,175.17
2019-02-08T02:05:11.908Z,172.40
2019-02-08T02:10:31.441Z,169.63
2019-02-08T02:15:36.012Z,168.53
2019-02-08T02:20:41.341Z,165.67
2019-02-08T02:25:45.942Z,179.33
2019-02-08T02:30:50.230Z,175.13
2019-02-08T02:35:54.606Z,169.43
2019-02-08T02:40:58.989Z,163.90
2019-02-08T02:46:03.896Z,173.53
2019-02-08T02:51:08.289Z,169.47
2019-02-08T02:56:12.672Z,167.07
2019-02-08T03:01:17.790Z,176.90
2019-02-08T03:06:22.170Z,178.73
2019-02-08T03:11:26.466Z,173.87
2019-02-08T03:16:30.616Z,167.20
2019-02-08T03:21:35.633Z,169.40
2019-02-08T03:26:39.805Z,166.03
2019-02-08T03:31:44.863Z,168.90
2019-02-08T03:36:49.271Z,170.07
2019-02-08T03:41:53.528Z,175.17
2019-02-08T03:46:57.842Z,165.90
2019-02-08T03:52:02.028Z,163.70
2019-02-08T03:57:06.303Z,162.53
2019-02-08T04:02:10.883Z,160.63
2019-02-08T04:07:15.774Z,156.53
2019-02-08T04:12:19.966Z,155.03
2019-02-08T04:17:24.455Z,160.07
2019-02-08T04:22:28.840Z,154.40
2019-02-08T04:27:33.224Z,152.40
2019-02-08T04:32:37.545Z,149.77
2019-02-08T04:37:41.726Z,150.23
2019-02-08T04:42:46.113Z,153.63
2019-02-08T04:47:50.317Z,147.23
2019-02-08T04:52:54.955Z,146.97
2019-02-08T04:57:59.229Z,145.60
2019-02-08T05:03:04.838Z,146.00
2019-02-08T05:08:09.927Z,142.47
2019-02-08T05:13:14.221Z,136.20
2019-02-08T05:18:18.517Z,135.07
2019-02-08T05:23:22.696Z,133.80
2019-02-08T05:28:26.983Z,131.47
2019-02-08T05:33:31.541Z,135.40
2019-02-08T05:38:35.837Z,135.03
2019-02-08T05:43:40.371Z,126.10
2019-02-08T05:48:44.682Z,124.57
2019-02-08T05:53:48.866Z,129.03
2019-02-08T05:58:53.255Z,127.93
2019-02-08T06:03:57.447Z,125.73
2019-02-08T06:09:01.729Z,124.87
2019-02-08T06:14:06.130Z,117.57
2019-02-08T06:19:10.500Z,119.73
2019-02-08T06:24:14.783Z,112.47
2019-02-08T06:29:19.051Z,94.13
2019-02-08T06:34:23.648Z,88.77
2019-02-08T06:39:28.037Z,83.97
2019-02-08T06:44:32.405Z,80.10
2019-02-08T06:49:36.585Z,71.77
2019-02-08T06:54:41.162Z,65.23
2019-02-08T06:59:45.442Z,61.77
2019-02-08T07:04:49.674Z,63.13
2019-02-08T07:09:53.985Z,59.20
2019-02-08T07:14:58.158Z,59.47
2019-02-08T07:20:09.297Z,58.40
2019-02-08T07:25:18.722Z,53.10
2019-02-08T07:30:30.596Z,50.40
2019-02-08T07:35:35.800Z,49.67
2019-02-08T07:40:44.266Z,47.57
2019-02-08T07:45:49.489Z,50.13
2019-02-08T07:50:53.875Z,46.63
2019-02-08T07:55:59.629Z,46.30
2019-02-08T08:01:05.200Z,48.27
2019-02-08T08:06:10.816Z,46.40
2019-02-08T08:11:16.418Z,44.97
2019-02-08T08:16:20.740Z,53.37
2019-02-08T08:21:26.439Z,54.33
2019-02-08T08:26:32.185Z,56.33
2019-02-08T08:31:39.090Z,61.33
2019-02-08T08:37:16.690Z,57.47
2019-02-08T08:43:25.030Z,57.37
2019-02-08T08:49:23.013Z,50.20
2019-02-08T08:55:16.312Z,52.77
2019-02-08T09:01:17.971Z,53.53
2019-02-08T09:06:55.632Z,53.33
2019-02-08T09:12:41.953Z,50.80
2019-02-08T09:18:23.954Z,47.37
2019-02-08T09:24:10.827Z,46.43
2019-02-08T09:29:51.914Z,52.00
2019-02-08T09:35:39.362Z,47.33
2019-02-08T09:41:08.570Z,45.90
2019-02-08T09:47:01.972Z,46.70
2019-02-08T09:52:39.853Z,46.43
2019-02-08T09:58:14.962Z,48.43
2019-02-08T10:03:52.346Z,42.43
2019-02-08T10:09:49.949Z,41.97
2019-02-08T10:15:35.342Z,45.07
2019-02-08T10:21:33.906Z,51.77
2019-02-08T10:27:21.602Z,41.20
2019-02-08T10:33:11.786Z,43.60
2019-02-08T10:38:59.405Z,43.97
2019-02-08T10:44:42.193Z,51.20
2019-02-08T10:50:11.911Z,45.27
2019-02-08T10:56:14.805Z,44.10
2019-02-08T11:02:21.166Z,47.03
2019-02-08T11:08:01.874Z,137.00
2019-02-08T11:14:04.072Z,230.30
2019-02-08T11:19:15.961Z,166.53
2019-02-08T11:24:24.489Z,135.03
2019-02-08T11:29:30.238Z,114.73
2019-02-08T11:34:35.525Z,101.67
2019-02-08T11:39:40.039Z,81.13
2019-02-08T11:44:44.834Z,65.60
2019-02-08T11:49:50.645Z,64.33
2019-02-08T11:54:55.133Z,61.70
2019-02-08T11:59:59.466Z,57.10
2019-02-08T12:05:06.186Z,54.67
2019-02-08T12:10:11.936Z,51.20
2019-02-08T12:20:49.169Z,45.13
2019-02-08T12:25:53.487Z,48.77
2019-02-08T12:30:58.312Z,52.23
2019-02-08T12:36:02.548Z,51.07
2019-02-08T12:41:09.775Z,50.67
2019-02-08T12:46:15.059Z,51.03
2019-02-08T12:51:20.212Z,62.50
2019-02-08T12:56:26.570Z,62.27
2019-02-08T13:01:37.637Z,54.90
2019-02-08T13:06:37.268Z,56.60
2019-02-08T13:11:41.489Z,56.07
2019-02-08T13:16:46.781Z,56.90
2019-02-08T13:21:51.086Z,65.57
2019-02-08T13:26:55.608Z,53.67
2019-02-08T13:32:00.922Z,51.87
2019-02-08T13:37:06.407Z,58.50
2019-02-08T13:42:12.244Z,53.20
2019-02-08T13:47:18.001Z,53.17
2019-02-08T13:52:22.295Z,50.40
2019-02-08T13:57:26.531Z,46.30
2019-02-08T14:02:30.781Z,49.03
2019-02-08T14:07:35.087Z,50.97
2019-02-08T14:12:39.286Z,47.80
2019-02-08T14:17:43.474Z,44.90
2019-02-08T14:22:48.346Z,38.57
2019-02-08T14:27:52.569Z,43.33
2019-02-08T14:32:57.122Z,40.93
2019-02-08T14:38:01.705Z,44.67
2019-02-08T14:43:07.435Z,41.20
2019-02-08T14:48:12.291Z,41.50
2019-02-08T14:53:16.671Z,36.67
2019-02-08T14:58:20.858Z,40.07
2019-02-08T15:03:26.628Z,47.87
2019-02-08T15:08:31.423Z,38.77
2019-02-08T15:13:35.940Z,43.50
2019-02-08T15:18:41.726Z,35.90
2019-02-08T15:23:46.681Z,42.37
2019-02-08T15:28:51.654Z,39.33
2019-02-08T15:33:55.887Z,37.10
2019-02-08T15:39:00.347Z,37.50
2019-02-08T15:44:04.750Z,36.80
2019-02-08T15:49:08.937Z,34.40
2019-02-08T15:54:13.500Z,37.17
2019-02-08T15:59:17.802Z,34.77
2019-02-08T16:04:22.030Z,31.33
2019-02-08T16:09:26.218Z,30.50
2019-02-08T16:14:30.673Z,30.77
2019-02-08T16:19:35.315Z,34.97
2019-02-08T16:24:39.618Z,30.50
2019-02-08T16:29:43.910Z,34.70
2019-02-08T16:34:48.640Z,29.90
2019-02-08T16:39:53.017Z,29.30
2019-02-08T16:44:57.306Z,28.77
2019-02-08T16:50:01.492Z,27.23
2019-02-08T16:55:07.637Z,31.30
2019-02-08T17:00:39.348Z,27.63
2019-02-08T17:05:43.682Z,27.77
2019-02-08T17:10:47.963Z,26.77
2019-02-08T17:15:52.356Z,29.33
2019-02-08T17:20:56.644Z,28.17
2019-02-08T17:26:00.854Z,28.50
2019-02-08T17:31:06.005Z,59.03
2019-02-08T17:36:10.467Z,61.30
2019-02-08T17:41:14.855Z,63.63
2019-02-08T17:46:19.109Z,66.07
2019-02-08T17:51:23.727Z,60.80
2019-02-08T17:56:28.015Z,62.43
2019-02-08T18:01:32.321Z,58.93
2019-02-08T18:06:36.612Z,62.83
2019-02-08T18:11:41.241Z,61.37
2019-02-08T18:16:46.242Z,59.30
2019-02-08T18:21:50.436Z,62.60
2019-02-08T18:26:54.632Z,65.73
2019-02-08T18:31:58.945Z,59.13
2019-02-08T18:37:03.527Z,59.73
2019-02-08T18:42:08.167Z,62.13
2019-02-08T18:47:12.666Z,67.20
2019-02-08T18:52:17.018Z,56.53
2019-02-08T18:57:21.545Z,200.40
2019-02-08T19:02:25.922Z,168.87
2019-02-08T19:07:30.147Z,131.47
2019-02-08T19:12:34.873Z,102.00
2019-02-08T19:17:39.667Z,213.23
2019-02-08T19:22:44.094Z,255.20
2019-02-08T19:27:48.298Z,233.33
2019-02-08T19:32:52.597Z,206.07
2019-02-08T19:37:56.969Z,177.70
2019-02-08T19:43:01.277Z,163.80
2019-02-08T19:48:07.306Z,149.93
2019-02-08T19:53:11.949Z,147.53
2019-02-08T19:58:16.273Z,119.47
2019-02-08T20:03:20.551Z,106.80
2019-02-08T20:08:24.929Z,115.27
2019-02-08T20:13:29.102Z,108.17
2019-02-08T20:18:33.603Z,109.30
2019-02-08T20:23:38.110Z,111.00
2019-02-08T20:28:42.785Z,106.60
2019-02-08T20:33:47.383Z,104.10
2019-02-08T20:38:51.654Z,100.63
2019-02-08T20:43:55.842Z,111.00
2019-02-08T20:49:00.079Z,104.37
2019-02-08T20:54:04.699Z,103.13
2019-02-08T20:59:10.432Z,102.40
2019-02-08T21:04:16.250Z,107.77
2019-02-08T21:09:20.486Z,112.17
2019-02-08T21:14:25.780Z,110.70
2019-02-08T21:19:30.136Z,108.80
2019-02-08T21:24:35.017Z,115.63
2019-02-08T21:29:39.312Z,102.47
2019-02-08T21:34:43.600Z,107.60
2019-02-08T21:39:48.110Z,110.57
2019-02-08T21:44:52.430Z,116.97
2019-02-08T21:49:56.618Z,110.10
2019-02-08T21:55:04.075Z,112.93
2019-02-08T22:00:19.203Z,113.33
2019-02-08T22:05:26.910Z,111.93
2019-02-08T22:10:31.414Z,115.37
2019-02-08T22:15:36.231Z,109.83
2019-02-08T22:20:40.441Z,117.23
2019-02-08T22:25:44.730Z,112.27
2019-02-08T22:30:49.019Z,111.97
2019-02-08T22:35:53.200Z,114.57
2019-02-08T22:40:57.632Z,114.10
2019-02-08T22:46:01.886Z,109.00
2019-02-08T22:51:06.082Z,110.17
2019-02-08T22:56:10.443Z,117.07
2019-02-08T23:01:29.050Z,106.90
2019-02-08T23:06:33.429Z,115.90
2019-02-08T23:11:37.681Z,116.10
2019-02-08T23:16:41.976Z,120.67
2019-02-08T23:21:46.353Z,112.77
2019-02-08T23:26:50.538Z,121.50
2019-02-08T23:31:55.573Z,115.23
2019-02-08T23:36:59.922Z,118.73
2019-02-08T23:42:04.425Z,112.70
2019-02-08T23:47:09.110Z,117.37
2019-02-08T23:52:13.993Z,118.20
2019-02-08T23:57:18.193Z,115.10
